sensor_id;sensor_type;location;lat;lon;timestamp;pressure;altitude;pressure_sealevel;temperature;humidity
62849;BME280;48941;49.516;8.286;2023-02-04T00:01:47;101754.22;;;8.54;94.79
62849;BME280;48941;49.516;8.286;2023-02-04T00:04:16;101759.41;;;8.57;94.58
62849;BME280;48941;49.516;8.286;2023-02-04T00:06:44;101759.69;;;8.51;92.65
62849;BME280;48941;49.516;8.286;2023-02-04T00:09:12;101754.88;;;8.60;90.72
62849;BME280;48941;49.516;8.286;2023-02-04T00:11:43;101754.00;;;8.59;89.78
62849;BME280;48941;49.516;8.286;2023-02-04T00:14:11;101770.72;;;8.61;89.83
62849;BME280;48941;49.516;8.286;2023-02-04T00:16:40;101771.88;;;8.55;89.97
62849;BME280;48941;49.516;8.286;2023-02-04T00:19:08;101773.47;;;8.60;89.53
62849;BME280;48941;49.516;8.286;2023-02-04T00:21:36;101782.28;;;8.60;89.33
62849;BME280;48941;49.516;8.286;2023-02-04T00:24:05;101787.81;;;8.55;89.60
62849;BME280;48941;49.516;8.286;2023-02-04T00:26:33;101788.75;;;8.54;88.93
62849;BME280;48941;49.516;8.286;2023-02-04T00:29:02;101795.00;;;8.53;89.29
62849;BME280;48941;49.516;8.286;2023-02-04T00:31:30;101792.97;;;8.58;88.49
62849;BME280;48941;49.516;8.286;2023-02-04T00:33:59;101800.25;;;8.55;88.48
62849;BME280;48941;49.516;8.286;2023-02-04T00:36:27;101797.59;;;8.55;88.00
62849;BME280;48941;49.516;8.286;2023-02-04T00:38:55;101795.94;;;8.52;87.88
62849;BME280;48941;49.516;8.286;2023-02-04T00:41:24;101798.28;;;8.58;87.74
62849;BME280;48941;49.516;8.286;2023-02-04T00:43:52;101803.75;;;8.55;87.38
62849;BME280;48941;49.516;8.286;2023-02-04T00:46:21;101810.94;;;8.53;87.39
62849;BME280;48941;49.516;8.286;2023-02-04T00:48:50;101809.31;;;8.51;87.78
62849;BME280;48941;49.516;8.286;2023-02-04T00:51:18;101821.00;;;8.47;88.10
62849;BME280;48941;49.516;8.286;2023-02-04T00:53:46;101821.09;;;8.45;88.16
62849;BME280;48941;49.516;8.286;2023-02-04T00:56:14;101819.41;;;8.43;88.32
62849;BME280;48941;49.516;8.286;2023-02-04T00:58:42;101817.75;;;8.40;88.59
62849;BME280;48941;49.516;8.286;2023-02-04T01:01:10;101815.09;;;8.40;88.56
62849;BME280;48941;49.516;8.286;2023-02-04T01:03:40;101812.44;;;8.40;88.33
62849;BME280;48941;49.516;8.286;2023-02-04T01:06:08;101816.09;;;8.37;88.49
62849;BME280;48941;49.516;8.286;2023-02-04T01:08:36;101804.75;;;8.34;88.80
62849;BME280;48941;49.516;8.286;2023-02-04T01:11:05;101810.00;;;8.35;88.45
62849;BME280;48941;49.516;8.286;2023-02-04T01:13:33;101810.13;;;8.32;88.04
62849;BME280;48941;49.516;8.286;2023-02-04T01:16:01;101809.28;;;8.32;88.73
62849;BME280;48941;49.516;8.286;2023-02-04T01:18:30;101812.00;;;8.30;88.04
62849;BME280;48941;49.516;8.286;2023-02-04T01:20:59;101821.72;;;8.31;88.07
62849;BME280;48941;49.516;8.286;2023-02-04T01:23:28;101829.69;;;8.31;88.13
62849;BME280;48941;49.516;8.286;2023-02-04T01:25:56;101824.44;;;8.30;88.02
62849;BME280;48941;49.516;8.286;2023-02-04T01:28:24;101824.50;;;8.28;87.71
62849;BME280;48941;49.516;8.286;2023-02-04T01:30:52;101824.72;;;8.24;87.87
62849;BME280;48941;49.516;8.286;2023-02-04T01:33:21;101828.31;;;8.23;88.03
62849;BME280;48941;49.516;8.286;2023-02-04T01:35:49;101824.84;;;8.21;87.40
62849;BME280;48941;49.516;8.286;2023-02-04T01:38:19;101825.81;;;8.20;87.03
62849;BME280;48941;49.516;8.286;2023-02-04T01:40:47;101831.91;;;8.22;87.09
62849;BME280;48941;49.516;8.286;2023-02-04T01:43:15;101836.41;;;8.20;86.71
62849;BME280;48941;49.516;8.286;2023-02-04T01:45:44;101832.03;;;8.18;86.47
62849;BME280;48941;49.516;8.286;2023-02-04T01:48:12;101833.03;;;8.16;85.87
62849;BME280;48941;49.516;8.286;2023-02-04T01:50:48;101832.13;;;8.17;85.66
62849;BME280;48941;49.516;8.286;2023-02-04T01:53:20;101837.50;;;8.15;85.74
62849;BME280;48941;49.516;8.286;2023-02-04T01:55:49;101842.59;;;8.20;85.65
62849;BME280;48941;49.516;8.286;2023-02-04T01:58:17;101853.78;;;8.27;84.42
62849;BME280;48941;49.516;8.286;2023-02-04T02:00:46;101863.34;;;8.31;83.10
62849;BME280;48941;49.516;8.286;2023-02-04T02:03:14;101856.50;;;8.25;83.58
62849;BME280;48941;49.516;8.286;2023-02-04T02:05:46;101863.09;;;8.16;83.42
62849;BME280;48941;49.516;8.286;2023-02-04T02:08:16;101860.66;;;8.12;84.23
62849;BME280;48941;49.516;8.286;2023-02-04T02:10:46;101858.41;;;8.03;84.50
62849;BME280;48941;49.516;8.286;2023-02-04T02:13:17;101862.25;;;7.97;84.68
62849;BME280;48941;49.516;8.286;2023-02-04T02:15:46;101867.69;;;7.94;85.29
62849;BME280;48941;49.516;8.286;2023-02-04T02:18:14;101871.63;;;8.04;85.43
62849;BME280;48941;49.516;8.286;2023-02-04T02:20:43;101879.75;;;8.01;86.33
62849;BME280;48941;49.516;8.286;2023-02-04T02:23:17;101883.66;;;7.92;88.07
62849;BME280;48941;49.516;8.286;2023-02-04T02:25:49;101879.69;;;7.82;90.18
62849;BME280;48941;49.516;8.286;2023-02-04T02:28:19;101887.44;;;7.87;91.31
62849;BME280;48941;49.516;8.286;2023-02-04T02:30:48;101894.88;;;7.78;93.07
62849;BME280;48941;49.516;8.286;2023-02-04T02:33:18;101900.69;;;7.68;94.27
62849;BME280;48941;49.516;8.286;2023-02-04T02:35:47;101890.63;;;7.55;94.76
62849;BME280;48941;49.516;8.286;2023-02-04T02:38:17;101889.41;;;7.63;95.21
62849;BME280;48941;49.516;8.286;2023-02-04T02:40:47;101892.47;;;7.53;95.60
62849;BME280;48941;49.516;8.286;2023-02-04T02:43:20;101890.09;;;7.47;95.74
62849;BME280;48941;49.516;8.286;2023-02-04T02:45:49;101887.03;;;7.36;96.68
62849;BME280;48941;49.516;8.286;2023-02-04T02:48:17;101891.59;;;7.32;96.90
62849;BME280;48941;49.516;8.286;2023-02-04T02:50:46;101885.38;;;7.33;96.79
62849;BME280;48941;49.516;8.286;2023-02-04T02:53:17;101878.59;;;7.26;96.83
62849;BME280;48941;49.516;8.286;2023-02-04T02:55:46;101888.81;;;7.35;96.91
62849;BME280;48941;49.516;8.286;2023-02-04T02:58:19;101886.13;;;7.37;96.07
62849;BME280;48941;49.516;8.286;2023-02-04T03:00:48;101881.72;;;7.36;95.78
62849;BME280;48941;49.516;8.286;2023-02-04T03:03:20;101879.94;;;7.36;95.69
62849;BME280;48941;49.516;8.286;2023-02-04T03:05:53;101879.59;;;7.24;95.78
62849;BME280;48941;49.516;8.286;2023-02-04T03:08:22;101892.91;;;7.22;96.58
62849;BME280;48941;49.516;8.286;2023-02-04T03:10:50;101900.06;;;7.20;96.79
62849;BME280;48941;49.516;8.286;2023-02-04T03:13:20;101902.59;;;7.23;96.84
62849;BME280;48941;49.516;8.286;2023-02-04T03:15:49;101893.72;;;7.24;96.92
62849;BME280;48941;49.516;8.286;2023-02-04T03:18:18;101902.84;;;7.17;96.98
62849;BME280;48941;49.516;8.286;2023-02-04T03:20:47;101909.22;;;7.13;97.26
62849;BME280;48941;49.516;8.286;2023-02-04T03:23:18;101915.06;;;7.21;97.00
62849;BME280;48941;49.516;8.286;2023-02-04T03:25:46;101920.34;;;7.21;96.91
62849;BME280;48941;49.516;8.286;2023-02-04T03:28:14;101917.97;;;7.15;96.98
62849;BME280;48941;49.516;8.286;2023-02-04T03:30:43;101925.50;;;7.24;96.55
62849;BME280;48941;49.516;8.286;2023-02-04T03:33:19;101924.06;;;7.17;96.63
62849;BME280;48941;49.516;8.286;2023-02-04T03:35:47;101920.13;;;7.05;97.03
62849;BME280;48941;49.516;8.286;2023-02-04T03:38:15;101920.84;;;7.09;97.28
62849;BME280;48941;49.516;8.286;2023-02-04T03:40:45;101926.81;;;7.14;96.67
62849;BME280;48941;49.516;8.286;2023-02-04T03:43:13;101932.38;;;7.08;96.75
62849;BME280;48941;49.516;8.286;2023-02-04T03:45:41;101945.44;;;7.12;96.79
62849;BME280;48941;49.516;8.286;2023-02-04T03:48:12;101945.38;;;7.14;96.26
62849;BME280;48941;49.516;8.286;2023-02-04T03:50:40;101946.47;;;7.08;96.15
62849;BME280;48941;49.516;8.286;2023-02-04T03:53:09;101949.94;;;7.10;96.49
62849;BME280;48941;49.516;8.286;2023-02-04T03:55:36;101942.13;;;7.07;96.50
62849;BME280;48941;49.516;8.286;2023-02-04T03:58:04;101940.53;;;7.03;96.46
62849;BME280;48941;49.516;8.286;2023-02-04T04:00:32;101930.28;;;6.94;96.46
62849;BME280;48941;49.516;8.286;2023-02-04T04:03:00;101929.78;;;6.84;96.82
62849;BME280;48941;49.516;8.286;2023-02-04T04:05:29;101931.53;;;6.85;96.61
62849;BME280;48941;49.516;8.286;2023-02-04T04:07:58;101943.16;;;6.81;96.76
62849;BME280;48941;49.516;8.286;2023-02-04T04:10:25;101937.44;;;6.92;96.77
62849;BME280;48941;49.516;8.286;2023-02-04T04:12:55;101935.63;;;6.92;96.46
62849;BME280;48941;49.516;8.286;2023-02-04T04:15:23;101938.91;;;6.99;96.64
62849;BME280;48941;49.516;8.286;2023-02-04T04:17:51;101941.38;;;7.04;96.15
62849;BME280;48941;49.516;8.286;2023-02-04T04:20:19;101946.72;;;7.02;95.97
62849;BME280;48941;49.516;8.286;2023-02-04T04:22:52;101947.47;;;7.06;95.28
62849;BME280;48941;49.516;8.286;2023-02-04T04:25:20;101948.56;;;7.00;95.61
62849;BME280;48941;49.516;8.286;2023-02-04T04:27:47;101948.72;;;6.97;95.95
62849;BME280;48941;49.516;8.286;2023-02-04T04:30:16;101943.53;;;6.94;96.20
62849;BME280;48941;49.516;8.286;2023-02-04T04:32:44;101946.78;;;7.01;95.69
62849;BME280;48941;49.516;8.286;2023-02-04T04:35:11;101951.03;;;6.83;96.26
62849;BME280;48941;49.516;8.286;2023-02-04T04:37:39;101950.31;;;6.79;96.55
62849;BME280;48941;49.516;8.286;2023-02-04T04:40:11;101956.63;;;6.75;96.85
62849;BME280;48941;49.516;8.286;2023-02-04T04:42:39;101965.41;;;6.77;96.58
62849;BME280;48941;49.516;8.286;2023-02-04T04:45:07;101974.31;;;6.74;96.20
62849;BME280;48941;49.516;8.286;2023-02-04T04:47:35;101974.44;;;6.71;96.33
62849;BME280;48941;49.516;8.286;2023-02-04T04:50:03;101979.59;;;6.74;95.75
62849;BME280;48941;49.516;8.286;2023-02-04T04:52:31;101978.84;;;6.71;95.84
62849;BME280;48941;49.516;8.286;2023-02-04T04:54:59;101985.88;;;6.72;95.54
62849;BME280;48941;49.516;8.286;2023-02-04T04:57:28;101977.94;;;6.72;95.70
62849;BME280;48941;49.516;8.286;2023-02-04T04:59:56;101987.38;;;6.79;95.00
62849;BME280;48941;49.516;8.286;2023-02-04T05:02:24;101990.94;;;6.78;94.57
62849;BME280;48941;49.516;8.286;2023-02-04T05:04:52;101982.31;;;6.73;94.05
62849;BME280;48941;49.516;8.286;2023-02-04T05:07:20;101982.09;;;6.79;94.13
62849;BME280;48941;49.516;8.286;2023-02-04T05:09:48;101987.53;;;6.74;94.04
62849;BME280;48941;49.516;8.286;2023-02-04T05:12:16;101986.94;;;6.68;94.34
62849;BME280;48941;49.516;8.286;2023-02-04T05:14:45;101989.56;;;6.68;94.04
62849;BME280;48941;49.516;8.286;2023-02-04T05:17:13;102002.88;;;6.66;94.19
62849;BME280;48941;49.516;8.286;2023-02-04T05:19:41;101993.22;;;6.65;93.55
62849;BME280;48941;49.516;8.286;2023-02-04T05:22:09;101998.44;;;6.67;93.76
62849;BME280;48941;49.516;8.286;2023-02-04T05:24:37;101997.72;;;6.63;93.30
62849;BME280;48941;49.516;8.286;2023-02-04T05:27:04;101991.47;;;6.64;93.17
62849;BME280;48941;49.516;8.286;2023-02-04T05:29:32;101994.97;;;6.65;92.88
62849;BME280;48941;49.516;8.286;2023-02-04T05:32:01;102004.75;;;6.63;92.48
62849;BME280;48941;49.516;8.286;2023-02-04T05:34:29;102003.91;;;6.62;92.62
62849;BME280;48941;49.516;8.286;2023-02-04T05:36:57;102011.81;;;6.64;92.07
62849;BME280;48941;49.516;8.286;2023-02-04T05:39:25;102018.00;;;6.63;92.43
62849;BME280;48941;49.516;8.286;2023-02-04T05:41:53;102022.44;;;6.62;92.43
62849;BME280;48941;49.516;8.286;2023-02-04T05:44:20;102026.88;;;6.62;92.06
62849;BME280;48941;49.516;8.286;2023-02-04T05:46:48;102025.13;;;6.61;92.30
62849;BME280;48941;49.516;8.286;2023-02-04T05:49:17;102036.63;;;6.61;92.24
62849;BME280;48941;49.516;8.286;2023-02-04T05:51:45;102036.66;;;6.60;92.12
62849;BME280;48941;49.516;8.286;2023-02-04T05:54:13;102035.81;;;6.59;92.34
62849;BME280;48941;49.516;8.286;2023-02-04T05:56:45;102042.00;;;6.58;92.45
62849;BME280;48941;49.516;8.286;2023-02-04T05:59:13;102049.25;;;6.53;92.10
62849;BME280;48941;49.516;8.286;2023-02-04T06:01:40;102048.38;;;6.52;91.86
62849;BME280;48941;49.516;8.286;2023-02-04T06:04:08;102051.03;;;6.52;91.75
62849;BME280;48941;49.516;8.286;2023-02-04T06:06:37;102049.31;;;6.51;92.34
62849;BME280;48941;49.516;8.286;2023-02-04T06:09:05;102060.81;;;6.50;91.77
62849;BME280;48941;49.516;8.286;2023-02-04T06:11:33;102065.31;;;6.48;91.64
62849;BME280;48941;49.516;8.286;2023-02-04T06:14:01;102063.66;;;6.46;91.72
62849;BME280;48941;49.516;8.286;2023-02-04T06:16:28;102078.72;;;6.44;92.33
62849;BME280;48941;49.516;8.286;2023-02-04T06:18:56;102081.47;;;6.41;92.12
62849;BME280;48941;49.516;8.286;2023-02-04T06:21:24;102075.34;;;6.38;92.49
62849;BME280;48941;49.516;8.286;2023-02-04T06:23:53;102078.06;;;6.37;92.79
62849;BME280;48941;49.516;8.286;2023-02-04T06:26:21;102082.50;;;6.36;92.41
62849;BME280;48941;49.516;8.286;2023-02-04T06:28:49;102085.13;;;6.36;92.49
62849;BME280;48941;49.516;8.286;2023-02-04T06:31:16;102092.25;;;6.34;92.62
62849;BME280;48941;49.516;8.286;2023-02-04T06:33:44;102090.56;;;6.33;92.69
62849;BME280;48941;49.516;8.286;2023-02-04T06:36:12;102089.63;;;6.34;92.87
62849;BME280;48941;49.516;8.286;2023-02-04T06:38:40;102088.81;;;6.32;93.03
62849;BME280;48941;49.516;8.286;2023-02-04T06:41:09;102087.16;;;6.30;93.29
62849;BME280;48941;49.516;8.286;2023-02-04T06:43:37;102090.69;;;6.29;92.86
62849;BME280;48941;49.516;8.286;2023-02-04T06:46:05;102089.78;;;6.30;92.77
62849;BME280;48941;49.516;8.286;2023-02-04T06:48:33;102090.81;;;6.26;92.92
62849;BME280;48941;49.516;8.286;2023-02-04T06:51:00;102082.94;;;6.24;92.71
62849;BME280;48941;49.516;8.286;2023-02-04T06:53:28;102095.25;;;6.25;92.79
62849;BME280;48941;49.516;8.286;2023-02-04T06:55:56;102097.00;;;6.25;92.70
62849;BME280;48941;49.516;8.286;2023-02-04T06:58:25;102104.13;;;6.23;92.77
62849;BME280;48941;49.516;8.286;2023-02-04T07:00:53;102095.41;;;6.21;92.90
62849;BME280;48941;49.516;8.286;2023-02-04T07:03:20;102104.13;;;6.23;92.71
62849;BME280;48941;49.516;8.286;2023-02-04T07:05:48;102101.56;;;6.21;92.80
62849;BME280;48941;49.516;8.286;2023-02-04T07:08:16;102102.53;;;6.18;93.07
62849;BME280;48941;49.516;8.286;2023-02-04T07:10:44;102108.75;;;6.17;93.37
62849;BME280;48941;49.516;8.286;2023-02-04T07:13:12;102111.41;;;6.17;93.20
62849;BME280;48941;49.516;8.286;2023-02-04T07:15:41;102128.16;;;6.16;93.32
62849;BME280;48941;49.516;8.286;2023-02-04T07:18:08;102132.66;;;6.14;93.43
62849;BME280;48941;49.516;8.286;2023-02-04T07:20:36;102130.03;;;6.13;93.58
62849;BME280;48941;49.516;8.286;2023-02-04T07:23:04;102127.41;;;6.13;93.69
62849;BME280;48941;49.516;8.286;2023-02-04T07:25:32;102127.34;;;6.14;93.65
62849;BME280;48941;49.516;8.286;2023-02-04T07:27:59;102135.41;;;6.11;93.63
62849;BME280;48941;49.516;8.286;2023-02-04T07:30:30;102144.25;;;6.10;93.75
62849;BME280;48941;49.516;8.286;2023-02-04T07:33:00;102150.53;;;6.08;93.93
62849;BME280;48941;49.516;8.286;2023-02-04T07:35:28;102154.94;;;6.07;94.61
62849;BME280;48941;49.516;8.286;2023-02-04T07:37:56;102162.00;;;6.07;94.66
62849;BME280;48941;49.516;8.286;2023-02-04T07:40:24;102161.91;;;6.10;94.51
62849;BME280;48941;49.516;8.286;2023-02-04T07:42:51;102165.41;;;6.10;94.65
62849;BME280;48941;49.516;8.286;2023-02-04T07:45:19;102161.88;;;6.11;94.90
62849;BME280;48941;49.516;8.286;2023-02-04T07:47:47;102169.72;;;6.13;95.07
62849;BME280;48941;49.516;8.286;2023-02-04T07:50:16;102173.19;;;6.15;95.27
62849;BME280;48941;49.516;8.286;2023-02-04T07:52:44;102165.22;;;6.16;94.59
62849;BME280;48941;49.516;8.286;2023-02-04T07:55:12;102179.22;;;6.20;94.71
62849;BME280;48941;49.516;8.286;2023-02-04T07:57:40;102172.09;;;6.22;94.55
62849;BME280;48941;49.516;8.286;2023-02-04T08:00:09;102176.41;;;6.25;94.73
62849;BME280;48941;49.516;8.286;2023-02-04T08:02:39;102187.78;;;6.27;95.10
62849;BME280;48941;49.516;8.286;2023-02-04T08:05:08;102185.06;;;6.30;94.97
62849;BME280;48941;49.516;8.286;2023-02-04T08:07:37;102186.72;;;6.32;95.34
62849;BME280;48941;49.516;8.286;2023-02-04T08:10:06;102192.78;;;6.36;95.13
62849;BME280;48941;49.516;8.286;2023-02-04T08:12:35;102188.31;;;6.38;94.65
62849;BME280;48941;49.516;8.286;2023-02-04T08:15:03;102192.59;;;6.42;95.04
62849;BME280;48941;49.516;8.286;2023-02-04T08:17:32;102188.91;;;6.46;94.88
62849;BME280;48941;49.516;8.286;2023-02-04T08:19:59;102204.63;;;6.51;94.63
62849;BME280;48941;49.516;8.286;2023-02-04T08:22:27;102208.91;;;6.55;94.54
62849;BME280;48941;49.516;8.286;2023-02-04T08:24:56;102214.00;;;6.61;94.07
62849;BME280;48941;49.516;8.286;2023-02-04T08:27:24;102215.69;;;6.64;94.16
62849;BME280;48941;49.516;8.286;2023-02-04T08:29:52;102212.78;;;6.71;93.23
62849;BME280;48941;49.516;8.286;2023-02-04T08:32:20;102212.59;;;6.76;92.67
62849;BME280;48941;49.516;8.286;2023-02-04T08:34:48;102216.06;;;6.78;92.89
62849;BME280;48941;49.516;8.286;2023-02-04T08:37:16;102220.38;;;6.81;92.93
62849;BME280;48941;49.516;8.286;2023-02-04T08:39:44;102230.81;;;6.85;92.46
62849;BME280;48941;49.516;8.286;2023-02-04T08:42:14;102229.00;;;6.87;92.03
62849;BME280;48941;49.516;8.286;2023-02-04T08:44:42;102229.63;;;6.94;91.70
62849;BME280;48941;49.516;8.286;2023-02-04T08:47:10;102230.44;;;6.96;91.53
62849;BME280;48941;49.516;8.286;2023-02-04T08:49:37;102243.59;;;6.99;90.95
62849;BME280;48941;49.516;8.286;2023-02-04T08:52:06;102240.75;;;7.04;90.48
62849;BME280;48941;49.516;8.286;2023-02-04T08:54:34;102244.22;;;7.06;90.65
62849;BME280;48941;49.516;8.286;2023-02-04T08:57:02;102235.34;;;7.07;90.53
62849;BME280;48941;49.516;8.286;2023-02-04T08:59:31;102243.16;;;7.11;90.86
62849;BME280;48941;49.516;8.286;2023-02-04T09:01:59;102243.81;;;7.16;89.88
62849;BME280;48941;49.516;8.286;2023-02-04T09:04:29;102243.69;;;7.21;89.85
62849;BME280;48941;49.516;8.286;2023-02-04T09:06:57;102240.00;;;7.25;89.86
62849;BME280;48941;49.516;8.286;2023-02-04T09:09:24;102246.81;;;7.31;89.41
62849;BME280;48941;49.516;8.286;2023-02-04T09:11:52;102244.94;;;7.34;88.66
62849;BME280;48941;49.516;8.286;2023-02-04T09:14:20;102251.75;;;7.42;87.91
62849;BME280;48941;49.516;8.286;2023-02-04T09:16:49;102257.81;;;7.45;87.97
62849;BME280;48941;49.516;8.286;2023-02-04T09:19:17;102259.47;;;7.48;87.79
62849;BME280;48941;49.516;8.286;2023-02-04T09:21:51;102270.88;;;7.50;87.17
62849;BME280;48941;49.516;8.286;2023-02-04T09:24:19;102265.41;;;7.54;86.96
62849;BME280;48941;49.516;8.286;2023-02-04T09:26:49;102265.34;;;7.56;86.26
62849;BME280;48941;49.516;8.286;2023-02-04T09:29:17;102266.97;;;7.60;86.00
62849;BME280;48941;49.516;8.286;2023-02-04T09:31:45;102264.22;;;7.63;86.03
62849;BME280;48941;49.516;8.286;2023-02-04T09:34:14;102260.50;;;7.67;86.06
62849;BME280;48941;49.516;8.286;2023-02-04T09:36:42;102264.72;;;7.73;84.95
62849;BME280;48941;49.516;8.286;2023-02-04T09:39:10;102269.03;;;7.75;84.05
62849;BME280;48941;49.516;8.286;2023-02-04T09:41:38;102272.38;;;7.81;83.25
62849;BME280;48941;49.516;8.286;2023-02-04T09:44:11;102286.31;;;7.86;82.58
62849;BME280;48941;49.516;8.286;2023-02-04T09:46:39;102291.75;;;7.83;82.01
62849;BME280;48941;49.516;8.286;2023-02-04T09:49:11;102288.88;;;7.89;82.04
62849;BME280;48941;49.516;8.286;2023-02-04T09:51:41;102290.41;;;7.94;80.61
62849;BME280;48941;49.516;8.286;2023-02-04T09:54:12;102283.94;;;8.02;79.70
62849;BME280;48941;49.516;8.286;2023-02-04T09:56:40;102285.25;;;8.13;79.50
62849;BME280;48941;49.516;8.286;2023-02-04T09:59:10;102297.13;;;8.27;79.81
62849;BME280;48941;49.516;8.286;2023-02-04T10:01:39;102301.03;;;8.38;78.64
62849;BME280;48941;49.516;8.286;2023-02-04T10:04:09;102305.97;;;8.49;76.45
62849;BME280;48941;49.516;8.286;2023-02-04T10:06:39;102298.53;;;8.57;75.93
62849;BME280;48941;49.516;8.286;2023-02-04T10:09:10;102301.84;;;8.63;75.67
62849;BME280;48941;49.516;8.286;2023-02-04T10:11:39;102303.50;;;8.67;75.14
62849;BME280;48941;49.516;8.286;2023-02-04T10:14:12;102298.09;;;8.68;75.31
62849;BME280;48941;49.516;8.286;2023-02-04T10:16:42;102305.88;;;8.73;74.37
62849;BME280;48941;49.516;8.286;2023-02-04T10:19:12;102311.06;;;8.76;74.09
62849;BME280;48941;49.516;8.286;2023-02-04T10:21:43;102316.38;;;8.76;73.96
62849;BME280;48941;49.516;8.286;2023-02-04T10:24:14;102319.78;;;8.80;72.54
62849;BME280;48941;49.516;8.286;2023-02-04T10:26:43;102315.31;;;8.80;73.54
62849;BME280;48941;49.516;8.286;2023-02-04T10:29:16;102314.50;;;8.78;71.07
62849;BME280;48941;49.516;8.286;2023-02-04T10:31:46;102322.38;;;8.81;71.53
62849;BME280;48941;49.516;8.286;2023-02-04T10:34:16;102312.22;;;8.91;70.50
62849;BME280;48941;49.516;8.286;2023-02-04T10:36:45;102314.25;;;8.84;72.44
62849;BME280;48941;49.516;8.286;2023-02-04T10:39:17;102330.03;;;8.89;72.49
62849;BME280;48941;49.516;8.286;2023-02-04T10:41:47;102326.41;;;8.90;71.62
62849;BME280;48941;49.516;8.286;2023-02-04T10:44:16;102330.94;;;8.88;70.70
62849;BME280;48941;49.516;8.286;2023-02-04T10:46:45;102333.38;;;8.92;70.68
62849;BME280;48941;49.516;8.286;2023-02-04T10:49:19;102331.69;;;8.91;69.19
62849;BME280;48941;49.516;8.286;2023-02-04T10:51:48;102323.38;;;8.99;69.50
62849;BME280;48941;49.516;8.286;2023-02-04T10:54:21;102328.50;;;9.04;69.13
62849;BME280;48941;49.516;8.286;2023-02-04T10:57:13;102321.25;;;9.07;67.58
62849;BME280;48941;49.516;8.286;2023-02-04T10:59:47;102314.81;;;9.13;67.45
62849;BME280;48941;49.516;8.286;2023-02-04T11:02:36;102323.84;;;9.09;67.56
62849;BME280;48941;49.516;8.286;2023-02-04T11:05:11;102323.06;;;9.07;67.88
62849;BME280;48941;49.516;8.286;2023-02-04T11:07:39;102323.06;;;9.07;67.67
62849;BME280;48941;49.516;8.286;2023-02-04T11:10:13;102314.94;;;9.10;67.35
62849;BME280;48941;49.516;8.286;2023-02-04T11:12:43;102313.22;;;9.09;67.27
62849;BME280;48941;49.516;8.286;2023-02-04T11:15:37;102311.63;;;9.05;66.40
62849;BME280;48941;49.516;8.286;2023-02-04T11:18:08;102320.41;;;9.07;67.10
62849;BME280;48941;49.516;8.286;2023-02-04T11:20:37;102311.47;;;9.08;66.21
62849;BME280;48941;49.516;8.286;2023-02-04T11:23:28;102316.22;;;9.01;66.26
62849;BME280;48941;49.516;8.286;2023-02-04T11:26:04;102321.47;;;9.03;66.04
62849;BME280;48941;49.516;8.286;2023-02-04T11:29:07;102309.22;;;8.98;64.94
62849;BME280;48941;49.516;8.286;2023-02-04T11:31:42;102310.84;;;9.03;65.01
62849;BME280;48941;49.516;8.286;2023-02-04T11:34:26;102311.09;;;9.17;64.72
62849;BME280;48941;49.516;8.286;2023-02-04T11:39:40;102309.41;;;9.35;63.37
62849;BME280;48941;49.516;8.286;2023-02-04T11:42:22;102315.66;;;9.34;63.36
62849;BME280;48941;49.516;8.286;2023-02-04T11:44:51;102312.44;;;9.46;62.85
62849;BME280;48941;49.516;8.286;2023-02-04T11:47:23;102315.28;;;9.62;62.02
62849;BME280;48941;49.516;8.286;2023-02-04T11:49:55;102315.59;;;9.75;61.35
62849;BME280;48941;49.516;8.286;2023-02-04T11:52:23;102317.97;;;10.00;61.27
62849;BME280;48941;49.516;8.286;2023-02-04T11:54:55;102314.84;;;10.28;59.70
62849;BME280;48941;49.516;8.286;2023-02-04T11:57:25;102315.03;;;10.62;59.56
62849;BME280;48941;49.516;8.286;2023-02-04T11:59:53;102317.88;;;10.93;58.19
62849;BME280;48941;49.516;8.286;2023-02-04T12:02:22;102309.09;;;11.42;56.98
62849;BME280;48941;49.516;8.286;2023-02-04T12:04:56;102313.38;;;11.46;54.23
62849;BME280;48941;49.516;8.286;2023-02-04T12:07:26;102305.47;;;11.27;55.82
62849;BME280;48941;49.516;8.286;2023-02-04T12:09:54;102313.84;;;11.37;55.96
62849;BME280;48941;49.516;8.286;2023-02-04T12:12:27;102311.44;;;11.32;55.08
62849;BME280;48941;49.516;8.286;2023-02-04T12:14:56;102312.47;;;11.12;56.31
62849;BME280;48941;49.516;8.286;2023-02-04T12:17:24;102307.53;;;11.05;55.96
62849;BME280;48941;49.516;8.286;2023-02-04T12:19:52;102303.06;;;10.88;56.87
62849;BME280;48941;49.516;8.286;2023-02-04T12:22:20;102301.00;;;10.75;57.35
62849;BME280;48941;49.516;8.286;2023-02-04T12:24:48;102308.59;;;10.66;58.17
62849;BME280;48941;49.516;8.286;2023-02-04T12:27:18;102302.19;;;10.70;58.43
62849;BME280;48941;49.516;8.286;2023-02-04T12:29:47;102304.22;;;11.00;57.57
62849;BME280;48941;49.516;8.286;2023-02-04T12:32:14;102310.88;;;11.26;56.78
62849;BME280;48941;49.516;8.286;2023-02-04T12:34:42;102312.03;;;11.38;55.86
62849;BME280;48941;49.516;8.286;2023-02-04T12:37:10;102311.19;;;11.70;54.27
62849;BME280;48941;49.516;8.286;2023-02-04T12:39:38;102312.91;;;11.87;54.24
62849;BME280;48941;49.516;8.286;2023-02-04T12:42:06;102311.28;;;11.85;53.94
62849;BME280;48941;49.516;8.286;2023-02-04T12:44:33;102318.13;;;11.90;55.12
62849;BME280;48941;49.516;8.286;2023-02-04T12:47:03;102321.41;;;12.11;54.73
62849;BME280;48941;49.516;8.286;2023-02-04T12:49:31;102317.19;;;12.23;53.43
62849;BME280;48941;49.516;8.286;2023-02-04T12:51:59;102321.94;;;12.02;53.68
62849;BME280;48941;49.516;8.286;2023-02-04T12:54:27;102318.84;;;11.76;54.27
62849;BME280;48941;49.516;8.286;2023-02-04T12:56:55;102316.50;;;11.54;54.90
62849;BME280;48941;49.516;8.286;2023-02-04T12:59:25;102321.84;;;11.37;55.35
62849;BME280;48941;49.516;8.286;2023-02-04T13:01:52;102324.13;;;11.27;56.05
62849;BME280;48941;49.516;8.286;2023-02-04T13:04:22;102323.69;;;11.02;56.80
62849;BME280;48941;49.516;8.286;2023-02-04T13:06:50;102333.81;;;10.95;56.88
62849;BME280;48941;49.516;8.286;2023-02-04T13:09:18;102328.16;;;10.84;57.23
62849;BME280;48941;49.516;8.286;2023-02-04T13:11:45;102325.44;;;10.66;57.82
62849;BME280;48941;49.516;8.286;2023-02-04T13:14:13;102324.13;;;10.57;58.54